createdAt,value
2023-02-19T00:00:05.947Z,4.63
2023-02-19T00:05:15.627Z,4.57
2023-02-19T00:10:19.344Z,3.70
2023-02-19T00:15:21.782Z,5.00
2023-02-19T00:20:24.241Z,7.22
2023-02-19T00:25:26.783Z,8.77
2023-02-19T00:30:29.389Z,6.20
2023-02-19T00:35:37.355Z,6.35
2023-02-19T00:40:40.017Z,4.30
2023-02-19T00:45:42.571Z,3.20
2023-02-19T00:50:45.015Z,6.10
2023-02-19T00:55:47.579Z,3.30
2023-02-19T01:00:50.086Z,3.97
2023-02-19T01:05:53.845Z,6.20
2023-02-19T01:10:56.395Z,5.63
2023-02-19T01:16:07.316Z,6.32
2023-02-19T01:21:14.623Z,10.48
2023-02-19T01:26:23.393Z,7.57
2023-02-19T01:31:26.077Z,4.10
2023-02-19T01:36:30.470Z,7.35
2023-02-19T01:41:36.524Z,6.53
2023-02-19T01:46:43.219Z,4.57
2023-02-19T01:51:49.696Z,7.40
2023-02-19T01:56:54.761Z,6.72
2023-02-19T02:01:57.362Z,4.25
2023-02-19T02:07:03.514Z,6.80
2023-02-19T02:12:06.248Z,4.32
2023-02-19T02:17:25.090Z,1.90
2023-02-19T02:22:53.800Z,2.70
2023-02-19T02:28:20.846Z,4.82
2023-02-19T02:33:36.671Z,3.10
2023-02-19T02:38:43.628Z,3.95
2023-02-19T02:43:46.931Z,4.18
2023-02-19T02:48:58.922Z,5.13
2023-02-19T02:54:26.163Z,4.68
2023-02-19T02:59:34.624Z,3.78
2023-02-19T03:05:14.785Z,6.03
2023-02-19T03:10:31.091Z,5.05
2023-02-19T03:16:03.272Z,3.55
2023-02-19T03:21:07.602Z,3.88
2023-02-19T03:26:15.346Z,3.50
2023-02-19T03:31:27.396Z,3.63
2023-02-19T03:36:43.217Z,4.50
2023-02-19T03:41:55.747Z,3.95
2023-02-19T03:47:11.436Z,5.88
2023-02-19T03:52:35.657Z,6.65
2023-02-19T03:57:47.688Z,5.60
2023-02-19T04:03:00.712Z,4.05
2023-02-19T04:08:16.120Z,7.00
2023-02-19T04:13:43.463Z,6.82
2023-02-19T04:18:50.230Z,8.02
2023-02-19T04:23:52.912Z,8.38
2023-02-19T04:28:55.451Z,8.10
2023-02-19T04:33:57.984Z,10.13
2023-02-19T04:39:00.780Z,6.57
2023-02-19T04:44:03.307Z,6.72
2023-02-19T04:49:05.789Z,7.38
2023-02-19T04:54:08.709Z,6.25
2023-02-19T04:59:11.130Z,6.50
2023-02-19T05:04:13.602Z,6.57
2023-02-19T05:09:16.212Z,6.47
2023-02-19T05:14:18.833Z,9.15
2023-02-19T05:19:21.411Z,9.45
2023-02-19T05:24:24.634Z,6.72
2023-02-19T05:29:27.206Z,11.57
2023-02-19T05:34:29.892Z,9.13
2023-02-19T05:39:32.392Z,8.18
2023-02-19T05:44:34.892Z,9.85
2023-02-19T05:49:37.446Z,9.80
2023-02-19T05:54:39.860Z,10.57
2023-02-19T05:59:42.357Z,8.95
2023-02-19T06:04:44.857Z,11.25
2023-02-19T06:09:51.081Z,10.85
2023-02-19T06:14:53.710Z,12.82
2023-02-19T06:19:56.254Z,11.25
2023-02-19T06:24:58.870Z,10.25
2023-02-19T06:30:01.512Z,12.43
2023-02-19T06:35:05.738Z,12.57
2023-02-19T06:40:08.799Z,15.27
2023-02-19T06:45:11.318Z,15.32
2023-02-19T06:50:13.919Z,16.10
2023-02-19T06:55:16.437Z,18.25
2023-02-19T07:00:19.074Z,15.45
2023-02-19T07:05:21.558Z,15.30
2023-02-19T07:10:23.992Z,15.32
2023-02-19T07:15:26.460Z,18.27
2023-02-19T07:20:28.885Z,16.80
2023-02-19T07:25:31.807Z,14.93
2023-02-19T07:30:34.675Z,10.63
2023-02-19T07:35:37.415Z,10.93
2023-02-19T07:40:39.843Z,11.02
2023-02-19T07:45:42.313Z,12.20
2023-02-19T07:50:53.165Z,10.05
2023-02-19T07:56:01.037Z,9.98
2023-02-19T08:01:20.124Z,12.07
2023-02-19T08:06:22.734Z,10.77
2023-02-19T08:11:43.483Z,7.07
2023-02-19T08:16:52.716Z,11.07
2023-02-19T08:21:55.283Z,9.77
2023-02-19T08:26:57.929Z,9.32
2023-02-19T08:32:00.561Z,10.32
2023-02-19T08:37:03.123Z,10.52
2023-02-19T08:42:05.785Z,7.68
2023-02-19T08:47:08.347Z,9.05
2023-02-19T08:52:10.853Z,8.18
2023-02-19T08:57:13.298Z,6.72
2023-02-19T09:02:17.066Z,11.65
2023-02-19T09:07:19.897Z,7.93
2023-02-19T09:12:22.500Z,11.88
2023-02-19T09:17:25.210Z,9.73
2023-02-19T09:22:27.725Z,7.15
2023-02-19T09:27:31.908Z,7.28
2023-02-19T09:32:34.417Z,9.52
2023-02-19T09:37:36.929Z,7.32
2023-02-19T09:42:42.413Z,7.38
2023-02-19T09:47:45.149Z,9.25
2023-02-19T09:52:55.122Z,7.32
2023-02-19T09:58:00.958Z,4.13
2023-02-19T10:03:31.965Z,7.20
2023-02-19T10:08:36.160Z,5.45
2023-02-19T10:13:48.314Z,6.88
2023-02-19T10:18:51.278Z,8.75
2023-02-19T10:24:01.766Z,9.40
2023-02-19T10:29:05.263Z,4.32
2023-02-19T10:34:19.183Z,5.00
2023-02-19T10:39:39.206Z,7.75
2023-02-19T10:44:47.755Z,4.68
2023-02-19T10:49:52.354Z,5.90
2023-02-19T10:55:14.832Z,7.38
2023-02-19T11:00:30.498Z,2.97
2023-02-19T11:05:35.211Z,5.82
2023-02-19T11:10:42.698Z,5.10
2023-02-19T11:15:53.408Z,5.40
2023-02-19T11:20:59.257Z,10.88
2023-02-19T11:26:07.584Z,8.13
2023-02-19T11:31:35.973Z,6.40
2023-02-19T11:36:39.133Z,4.40
2023-02-19T11:42:06.494Z,6.13
2023-02-19T11:47:33.724Z,5.03
2023-02-19T11:52:42.379Z,4.03
2023-02-19T11:57:48.956Z,5.18
2023-02-19T12:03:28.898Z,3.70
2023-02-19T12:08:31.320Z,5.57
2023-02-19T12:14:08.035Z,5.45
2023-02-19T12:19:56.563Z,8.70
2023-02-19T12:25:07.869Z,8.90
2023-02-19T12:30:28.655Z,5.25
2023-02-19T12:35:43.246Z,7.30
2023-02-19T12:40:58.022Z,9.85
2023-02-19T12:46:13.259Z,7.18
2023-02-19T12:51:58.985Z,5.60
2023-02-19T12:57:20.507Z,6.30
2023-02-19T13:02:50.977Z,6.72
2023-02-19T13:08:23.408Z,6.80
2023-02-19T13:13:42.289Z,6.15
2023-02-19T13:18:56.107Z,6.45
2023-02-19T13:23:58.855Z,4.03
2023-02-19T13:29:20.109Z,11.80
2023-02-19T13:35:01.159Z,6.72
2023-02-19T13:40:18.656Z,6.00
2023-02-19T13:45:43.937Z,5.95
2023-02-19T13:50:46.440Z,8.48
2023-02-19T13:55:53.197Z,3.97
2023-02-19T14:00:55.791Z,6.80
2023-02-19T14:06:06.662Z,9.73
2023-02-19T14:11:09.436Z,5.55
2023-02-19T14:16:35.142Z,9.27
2023-02-19T14:21:40.906Z,4.60
2023-02-19T14:26:43.848Z,8.82
2023-02-19T14:31:47.706Z,6.93
2023-02-19T14:36:55.791Z,10.00
2023-02-19T14:42:20.031Z,7.43
2023-02-19T14:47:24.972Z,9.75
2023-02-19T14:52:32.601Z,5.30
2023-02-19T14:57:45.925Z,7.40
2023-02-19T15:02:53.174Z,4.38
2023-02-19T15:07:59.890Z,5.60
2023-02-19T15:13:08.603Z,5.35
2023-02-19T15:18:35.920Z,5.85
2023-02-19T15:23:39.189Z,7.68
2023-02-19T15:28:41.724Z,4.28
2023-02-19T15:33:54.101Z,7.10
2023-02-19T15:38:59.948Z,9.93
2023-02-19T15:44:08.400Z,8.02
2023-02-19T15:49:21.140Z,6.10
2023-02-19T15:54:34.516Z,9.40
2023-02-19T15:59:42.564Z,6.82
2023-02-19T16:04:45.988Z,7.45
2023-02-19T16:09:48.553Z,8.05
2023-02-19T16:14:51.360Z,5.40
2023-02-19T16:20:03.694Z,4.68
2023-02-19T16:25:08.465Z,4.28
2023-02-19T16:30:28.357Z,9.77
2023-02-19T16:35:40.139Z,7.68
2023-02-19T16:41:06.643Z,15.48
2023-02-19T16:46:12.709Z,9.48
2023-02-19T16:51:27.765Z,10.95
2023-02-19T16:56:32.702Z,8.07
2023-02-19T17:01:37.281Z,12.25
2023-02-19T17:06:39.887Z,13.77
2023-02-19T17:11:44.119Z,12.30
2023-02-19T17:16:47.251Z,16.50
2023-02-19T17:21:51.761Z,12.65
2023-02-19T17:26:54.288Z,12.13
2023-02-19T17:31:57.001Z,9.60
2023-02-19T17:36:59.976Z,13.98
2023-02-19T17:42:06.351Z,12.52
2023-02-19T17:47:09.022Z,16.33
2023-02-19T17:52:12.583Z,10.65
2023-02-19T17:57:15.165Z,13.27
2023-02-19T18:02:17.683Z,13.57
2023-02-19T18:07:20.260Z,13.73
2023-02-19T18:12:22.830Z,16.80
2023-02-19T18:17:25.696Z,12.55
2023-02-19T18:22:28.238Z,14.23
2023-02-19T18:27:30.904Z,12.30
2023-02-19T18:32:33.443Z,17.90
2023-02-19T18:37:36.021Z,14.73
2023-02-19T18:42:39.437Z,15.75
2023-02-19T18:47:41.925Z,16.92
2023-02-19T18:52:44.985Z,20.20
2023-02-19T18:57:48.342Z,13.88
2023-02-19T19:02:51.654Z,12.77
2023-02-19T19:07:56.611Z,13.77
2023-02-19T19:12:59.240Z,11.98
2023-02-19T19:18:03.015Z,12.65
2023-02-19T19:23:06.846Z,15.38
2023-02-19T19:28:09.407Z,15.68
2023-02-19T19:33:12.113Z,12.55
2023-02-19T19:38:16.660Z,13.77
2023-02-19T19:43:19.186Z,13.80
2023-02-19T19:48:22.668Z,11.10
2023-02-19T19:53:25.260Z,17.98
2023-02-19T19:58:27.788Z,15.43
2023-02-19T20:03:31.719Z,17.05
2023-02-19T20:08:35.342Z,16.35
2023-02-19T20:13:37.898Z,10.20
2023-02-19T20:18:40.899Z,11.30
2023-02-19T20:23:43.445Z,11.07
2023-02-19T20:28:48.743Z,16.02
2023-02-19T20:33:52.039Z,17.23
2023-02-19T20:38:54.570Z,13.38
2023-02-19T20:43:57.436Z,13.98
2023-02-19T20:49:00.122Z,11.35
2023-02-19T20:54:02.705Z,12.30
2023-02-19T20:59:05.182Z,9.10
2023-02-19T21:04:07.991Z,9.15
2023-02-19T21:09:10.500Z,9.43
2023-02-19T21:14:13.032Z,10.73
2023-02-19T21:19:15.654Z,13.13
2023-02-19T21:24:18.277Z,11.30
2023-02-19T21:29:22.877Z,9.40
2023-02-19T21:34:28.062Z,12.27
2023-02-19T21:39:32.536Z,13.93
2023-02-19T21:44:35.176Z,11.98
2023-02-19T21:49:37.689Z,11.13
2023-02-19T21:54:40.080Z,13.80
2023-02-19T21:59:42.511Z,16.88
2023-02-19T22:04:44.987Z,12.80
2023-02-19T22:09:48.936Z,19.02
2023-02-19T22:14:52.899Z,14.20
2023-02-19T22:19:55.411Z,21.30
2023-02-19T22:24:57.960Z,14.45
2023-02-19T22:30:00.581Z,11.82
2023-02-19T22:35:03.101Z,18.88
2023-02-19T22:40:06.737Z,15.50
2023-02-19T22:45:11.871Z,17.85
2023-02-19T22:50:19.733Z,21.80
2023-02-19T22:55:22.505Z,20.30
2023-02-19T23:00:24.976Z,16.70
2023-02-19T23:05:27.466Z,15.75
2023-02-19T23:10:29.995Z,18.52
2023-02-19T23:15:32.527Z,18.02
2023-02-19T23:20:35.617Z,17.13
2023-02-19T23:25:38.045Z,19.58
2023-02-19T23:30:40.569Z,15.13
2023-02-19T23:35:43.100Z,13.95
2023-02-19T23:40:45.802Z,19.30
2023-02-19T23:45:48.403Z,17.33
2023-02-19T23:50:50.915Z,17.25
2023-02-19T23:55:53.364Z,13.50
